Terminal Aerodrome Forecast
Issued by NWS Detroit/Pontiac, MI

Home | Current Version | Previous Version | Text Only | Print | Product List | Glossary On
Versions: 1 2 3 4 5 6 7 8 9 10 11 12 13 14 15 16 17 18 19 20 21 22 23 24 25 26 27 28 29 30 31 32 33 34 35 36 37 38 39 40 41 42 43 44 45 46 47 48 49 50
000
FTUS43 KDTX 201448 AAA
TAFDTW
TAF AMD
KDTW 201448Z 2015/2118 02017KT 2SM -SHRA BR OVC010
     FM201800 02017KT 3SM SHRA BR OVC010
     FM202000 01007KT 4SM -SHRA BR OVC010
     FM210100 34005KT P6SM OVC007
     FM210500 VRB03KT 4SM BR OVC007=

USA.gov is the U.S. government's official web portal to all federal, state and local government web resources and services.